sensor_id;sensor_type;location;lat;lon;timestamp;pressure;altitude;pressure_sealevel;temperature
14666;BMP280;7420;53.574;10.040;2023-04-10T00:00:39;54233.38;;;-136.87
14666;BMP280;7420;53.574;10.040;2023-04-10T00:03:06;54229.28;;;-136.87
14666;BMP280;7420;53.574;10.040;2023-04-10T00:05:32;54231.31;;;-136.87
14666;BMP280;7420;53.574;10.040;2023-04-10T00:07:57;54231.31;;;-136.87
14666;BMP280;7420;53.574;10.040;2023-04-10T00:10:22;54229.28;;;-136.87
14666;BMP280;7420;53.574;10.040;2023-04-10T00:12:50;54231.31;;;-136.87
14666;BMP280;7420;53.574;10.040;2023-04-10T00:15:18;54229.28;;;-136.87
14666;BMP280;7420;53.574;10.040;2023-04-10T00:17:44;54229.28;;;-136.87
14666;BMP280;7420;53.574;10.040;2023-04-10T00:20:09;54229.28;;;-136.87
14666;BMP280;7420;53.574;10.040;2023-04-10T00:22:35;54233.38;;;-136.87
14666;BMP280;7420;53.574;10.040;2023-04-10T00:25:00;54231.31;;;-136.87
14666;BMP280;7420;53.574;10.040;2023-04-10T00:27:26;54229.28;;;-136.87
14666;BMP280;7420;53.574;10.040;2023-04-10T00:29:51;54231.31;;;-136.87
14666;BMP280;7420;53.574;10.040;2023-04-10T00:32:16;54225.19;;;-136.87
14666;BMP280;7420;53.574;10.040;2023-04-10T00:34:42;54229.28;;;-136.87
14666;BMP280;7420;53.574;10.040;2023-04-10T00:37:09;54229.28;;;-136.87
14666;BMP280;7420;53.574;10.040;2023-04-10T00:39:38;54227.25;;;-136.87
14666;BMP280;7420;53.574;10.040;2023-04-10T00:42:04;54229.28;;;-136.87
14666;BMP280;7420;53.574;10.040;2023-04-10T00:44:33;54229.28;;;-136.87
14666;BMP280;7420;53.574;10.040;2023-04-10T00:47:02;54229.28;;;-136.87
14666;BMP280;7420;53.574;10.040;2023-04-10T00:49:29;54231.31;;;-136.87
14666;BMP280;7420;53.574;10.040;2023-04-10T00:51:55;54227.25;;;-136.87
14666;BMP280;7420;53.574;10.040;2023-04-10T00:54:20;54231.31;;;-136.87
14666;BMP280;7420;53.574;10.040;2023-04-10T00:56:46;54233.38;;;-136.87
14666;BMP280;7420;53.574;10.040;2023-04-10T00:59:14;54231.31;;;-136.87
14666;BMP280;7420;53.574;10.040;2023-04-10T01:01:39;54231.31;;;-136.87
14666;BMP280;7420;53.574;10.040;2023-04-10T01:04:06;54227.25;;;-136.87
14666;BMP280;7420;53.574;10.040;2023-04-10T01:06:46;54229.28;;;-136.87
14666;BMP280;7420;53.574;10.040;2023-04-10T01:09:22;54227.25;;;-136.87
14666;BMP280;7420;53.574;10.040;2023-04-10T01:12:10;54227.25;;;-136.87
14666;BMP280;7420;53.574;10.040;2023-04-10T01:14:57;54227.25;;;-136.87
14666;BMP280;7420;53.574;10.040;2023-04-10T01:20:27;54227.25;;;-136.87
14666;BMP280;7420;53.574;10.040;2023-04-10T01:26:02;54229.28;;;-136.87
14666;BMP280;7420;53.574;10.040;2023-04-10T01:28:51;54229.28;;;-136.87
14666;BMP280;7420;53.574;10.040;2023-04-10T01:31:20;54229.28;;;-136.87
14666;BMP280;7420;53.574;10.040;2023-04-10T01:33:50;54229.28;;;-136.87
14666;BMP280;7420;53.574;10.040;2023-04-10T01:36:35;54229.28;;;-136.87
14666;BMP280;7420;53.574;10.040;2023-04-10T01:39:01;54227.25;;;-136.87
14666;BMP280;7420;53.574;10.040;2023-04-10T01:41:28;54231.31;;;-136.87
14666;BMP280;7420;53.574;10.040;2023-04-10T01:43:56;54227.25;;;-136.87
14666;BMP280;7420;53.574;10.040;2023-04-10T01:46:24;54231.31;;;-136.87
14666;BMP280;7420;53.574;10.040;2023-04-10T01:48:51;54229.28;;;-136.87
14666;BMP280;7420;53.574;10.040;2023-04-10T01:51:17;54231.31;;;-136.87
14666;BMP280;7420;53.574;10.040;2023-04-10T01:53:43;54229.28;;;-136.87
14666;BMP280;7420;53.574;10.040;2023-04-10T01:56:12;54227.25;;;-136.87
14666;BMP280;7420;53.574;10.040;2023-04-10T01:58:37;54229.28;;;-136.87
14666;BMP280;7420;53.574;10.040;2023-04-10T02:01:03;54229.28;;;-136.87
14666;BMP280;7420;53.574;10.040;2023-04-10T02:03:28;54227.25;;;-136.87
14666;BMP280;7420;53.574;10.040;2023-04-10T02:06:03;54229.28;;;-136.87
14666;BMP280;7420;53.574;10.040;2023-04-10T02:08:38;54225.19;;;-136.87
14666;BMP280;7420;53.574;10.040;2023-04-10T02:11:14;54229.28;;;-136.87
14666;BMP280;7420;53.574;10.040;2023-04-10T02:13:42;54229.28;;;-136.87
14666;BMP280;7420;53.574;10.040;2023-04-10T02:16:07;54227.25;;;-136.87
14666;BMP280;7420;53.574;10.040;2023-04-10T02:18:34;54231.31;;;-136.87
14666;BMP280;7420;53.574;10.040;2023-04-10T02:21:00;54227.25;;;-136.87
14666;BMP280;7420;53.574;10.040;2023-04-10T02:23:26;54231.31;;;-136.87
14666;BMP280;7420;53.574;10.040;2023-04-10T02:25:52;54225.19;;;-136.87
14666;BMP280;7420;53.574;10.040;2023-04-10T02:28:17;54227.25;;;-136.87
14666;BMP280;7420;53.574;10.040;2023-04-10T02:30:43;54229.28;;;-136.87
14666;BMP280;7420;53.574;10.040;2023-04-10T02:33:08;54229.28;;;-136.87
14666;BMP280;7420;53.574;10.040;2023-04-10T02:35:33;54225.19;;;-136.87
14666;BMP280;7420;53.574;10.040;2023-04-10T02:37:59;54227.25;;;-136.87
14666;BMP280;7420;53.574;10.040;2023-04-10T02:40:24;54227.25;;;-136.87
14666;BMP280;7420;53.574;10.040;2023-04-10T02:42:50;54227.25;;;-136.87
14666;BMP280;7420;53.574;10.040;2023-04-10T02:45:15;54227.25;;;-136.87
14666;BMP280;7420;53.574;10.040;2023-04-10T02:47:41;54231.31;;;-136.87
14666;BMP280;7420;53.574;10.040;2023-04-10T02:50:06;54231.31;;;-136.87
14666;BMP280;7420;53.574;10.040;2023-04-10T02:52:32;54229.28;;;-136.87
14666;BMP280;7420;53.574;10.040;2023-04-10T02:54:57;54231.31;;;-136.87
14666;BMP280;7420;53.574;10.040;2023-04-10T02:57:22;54227.25;;;-136.87
14666;BMP280;7420;53.574;10.040;2023-04-10T02:59:51;54227.25;;;-136.87
14666;BMP280;7420;53.574;10.040;2023-04-10T03:02:16;54231.31;;;-136.87
14666;BMP280;7420;53.574;10.040;2023-04-10T03:04:42;54229.28;;;-136.87
14666;BMP280;7420;53.574;10.040;2023-04-10T03:07:07;54229.28;;;-136.87
14666;BMP280;7420;53.574;10.040;2023-04-10T03:09:33;54227.25;;;-136.87
14666;BMP280;7420;53.574;10.040;2023-04-10T03:11:58;54229.28;;;-136.87
14666;BMP280;7420;53.574;10.040;2023-04-10T03:14:24;54227.25;;;-136.87
14666;BMP280;7420;53.574;10.040;2023-04-10T03:16:50;54225.19;;;-136.87
14666;BMP280;7420;53.574;10.040;2023-04-10T03:19:15;54229.28;;;-136.87
14666;BMP280;7420;53.574;10.040;2023-04-10T03:21:40;54229.28;;;-136.87
14666;BMP280;7420;53.574;10.040;2023-04-10T03:24:06;54227.25;;;-136.87
14666;BMP280;7420;53.574;10.040;2023-04-10T03:26:31;54227.25;;;-136.87
14666;BMP280;7420;53.574;10.040;2023-04-10T03:28:57;54229.28;;;-136.87
14666;BMP280;7420;53.574;10.040;2023-04-10T03:31:22;54229.28;;;-136.87
14666;BMP280;7420;53.574;10.040;2023-04-10T03:33:48;54225.19;;;-136.87
14666;BMP280;7420;53.574;10.040;2023-04-10T03:36:13;54225.19;;;-136.87
14666;BMP280;7420;53.574;10.040;2023-04-10T03:38:39;54225.19;;;-136.87
14666;BMP280;7420;53.574;10.040;2023-04-10T03:41:05;54229.28;;;-136.87
14666;BMP280;7420;53.574;10.040;2023-04-10T03:43:30;54225.19;;;-136.87
14666;BMP280;7420;53.574;10.040;2023-04-10T03:45:57;54229.28;;;-136.87
14666;BMP280;7420;53.574;10.040;2023-04-10T03:48:22;54229.28;;;-136.87
14666;BMP280;7420;53.574;10.040;2023-04-10T03:50:48;54231.31;;;-136.87
14666;BMP280;7420;53.574;10.040;2023-04-10T03:53:13;54231.31;;;-136.87
14666;BMP280;7420;53.574;10.040;2023-04-10T03:55:39;54229.28;;;-136.87
14666;BMP280;7420;53.574;10.040;2023-04-10T04:00:30;54225.19;;;-136.87
14666;BMP280;7420;53.574;10.040;2023-04-10T04:02:56;54229.28;;;-136.87
14666;BMP280;7420;53.574;10.040;2023-04-10T04:05:23;54227.25;;;-136.87
14666;BMP280;7420;53.574;10.040;2023-04-10T04:07:48;54229.28;;;-136.87
14666;BMP280;7420;53.574;10.040;2023-04-10T04:10:13;54229.28;;;-136.87
14666;BMP280;7420;53.574;10.040;2023-04-10T04:12:39;54229.28;;;-136.87
14666;BMP280;7420;53.574;10.040;2023-04-10T04:15:05;54229.28;;;-136.87
14666;BMP280;7420;53.574;10.040;2023-04-10T04:17:30;54231.31;;;-136.87
14666;BMP280;7420;53.574;10.040;2023-04-10T04:19:55;54227.25;;;-136.87
14666;BMP280;7420;53.574;10.040;2023-04-10T04:22:21;54225.19;;;-136.87
14666;BMP280;7420;53.574;10.040;2023-04-10T04:24:46;54229.28;;;-136.87
14666;BMP280;7420;53.574;10.040;2023-04-10T04:27:11;54227.25;;;-136.87
14666;BMP280;7420;53.574;10.040;2023-04-10T04:29:37;54229.28;;;-136.87
14666;BMP280;7420;53.574;10.040;2023-04-10T04:32:02;54229.28;;;-136.87
14666;BMP280;7420;53.574;10.040;2023-04-10T04:34:28;54231.31;;;-136.87
14666;BMP280;7420;53.574;10.040;2023-04-10T04:36:53;54227.25;;;-136.87
14666;BMP280;7420;53.574;10.040;2023-04-10T04:39:18;54227.25;;;-136.87
14666;BMP280;7420;53.574;10.040;2023-04-10T04:41:45;54225.19;;;-136.87
14666;BMP280;7420;53.574;10.040;2023-04-10T04:44:10;54227.25;;;-136.87
14666;BMP280;7420;53.574;10.040;2023-04-10T04:46:35;54225.19;;;-136.87
14666;BMP280;7420;53.574;10.040;2023-04-10T04:49:01;54227.25;;;-136.87
14666;BMP280;7420;53.574;10.040;2023-04-10T04:51:27;54227.25;;;-136.87
14666;BMP280;7420;53.574;10.040;2023-04-10T04:53:52;54225.19;;;-136.87
14666;BMP280;7420;53.574;10.040;2023-04-10T04:56:17;54227.25;;;-136.87
14666;BMP280;7420;53.574;10.040;2023-04-10T04:58:43;54229.28;;;-136.87
14666;BMP280;7420;53.574;10.040;2023-04-10T05:01:08;54227.25;;;-136.87
14666;BMP280;7420;53.574;10.040;2023-04-10T05:03:33;54227.25;;;-136.87
14666;BMP280;7420;53.574;10.040;2023-04-10T05:05:59;54229.28;;;-136.87
14666;BMP280;7420;53.574;10.040;2023-04-10T05:08:24;54227.25;;;-136.87
14666;BMP280;7420;53.574;10.040;2023-04-10T05:10:50;54227.25;;;-136.87
14666;BMP280;7420;53.574;10.040;2023-04-10T05:13:16;54227.25;;;-136.87
14666;BMP280;7420;53.574;10.040;2023-04-10T05:15:42;54225.19;;;-136.87
14666;BMP280;7420;53.574;10.040;2023-04-10T05:18:08;54225.19;;;-136.87
14666;BMP280;7420;53.574;10.040;2023-04-10T05:20:34;54229.28;;;-136.87
14666;BMP280;7420;53.574;10.040;2023-04-10T05:23:00;54225.19;;;-136.87
14666;BMP280;7420;53.574;10.040;2023-04-10T05:25:25;54225.19;;;-136.87
14666;BMP280;7420;53.574;10.040;2023-04-10T05:27:51;54229.28;;;-136.87
14666;BMP280;7420;53.574;10.040;2023-04-10T05:30:16;54225.19;;;-136.87
14666;BMP280;7420;53.574;10.040;2023-04-10T05:32:42;54229.28;;;-136.87
14666;BMP280;7420;53.574;10.040;2023-04-10T05:35:07;54227.25;;;-136.87
14666;BMP280;7420;53.574;10.040;2023-04-10T05:37:33;54225.19;;;-136.87
14666;BMP280;7420;53.574;10.040;2023-04-10T05:40:00;54229.28;;;-136.87
14666;BMP280;7420;53.574;10.040;2023-04-10T05:42:25;54225.19;;;-136.87
14666;BMP280;7420;53.574;10.040;2023-04-10T05:44:51;54227.25;;;-136.87
14666;BMP280;7420;53.574;10.040;2023-04-10T05:47:16;54229.28;;;-136.87
14666;BMP280;7420;53.574;10.040;2023-04-10T05:52:07;54225.19;;;-136.87
14666;BMP280;7420;53.574;10.040;2023-04-10T05:54:32;54229.28;;;-136.87
14666;BMP280;7420;53.574;10.040;2023-04-10T05:56:58;54225.19;;;-136.87
14666;BMP280;7420;53.574;10.040;2023-04-10T05:59:23;54227.25;;;-136.87
14666;BMP280;7420;53.574;10.040;2023-04-10T06:01:48;54225.19;;;-136.87
14666;BMP280;7420;53.574;10.040;2023-04-10T06:04:14;54225.19;;;-136.87
14666;BMP280;7420;53.574;10.040;2023-04-10T06:06:40;54229.28;;;-136.87
14666;BMP280;7420;53.574;10.040;2023-04-10T06:09:06;54225.19;;;-136.87
14666;BMP280;7420;53.574;10.040;2023-04-10T06:11:31;54227.25;;;-136.87
14666;BMP280;7420;53.574;10.040;2023-04-10T06:13:56;54227.25;;;-136.87
14666;BMP280;7420;53.574;10.040;2023-04-10T06:16:22;54223.16;;;-136.87
14666;BMP280;7420;53.574;10.040;2023-04-10T06:18:47;54227.25;;;-136.87
14666;BMP280;7420;53.574;10.040;2023-04-10T06:21:15;54225.19;;;-136.87
14666;BMP280;7420;53.574;10.040;2023-04-10T06:23:40;54225.19;;;-136.87
14666;BMP280;7420;53.574;10.040;2023-04-10T06:26:06;54229.28;;;-136.87
14666;BMP280;7420;53.574;10.040;2023-04-10T06:28:31;54227.25;;;-136.87
14666;BMP280;7420;53.574;10.040;2023-04-10T06:30:56;54229.28;;;-136.87
14666;BMP280;7420;53.574;10.040;2023-04-10T06:33:22;54225.19;;;-136.87
14666;BMP280;7420;53.574;10.040;2023-04-10T06:35:47;54229.28;;;-136.87
14666;BMP280;7420;53.574;10.040;2023-04-10T06:38:13;54225.19;;;-136.87
14666;BMP280;7420;53.574;10.040;2023-04-10T06:40:39;54229.28;;;-136.87
14666;BMP280;7420;53.574;10.040;2023-04-10T06:43:05;54227.25;;;-136.87
14666;BMP280;7420;53.574;10.040;2023-04-10T06:45:30;54225.19;;;-136.87
14666;BMP280;7420;53.574;10.040;2023-04-10T06:47:55;54229.28;;;-136.87
14666;BMP280;7420;53.574;10.040;2023-04-10T06:50:21;54223.16;;;-136.87
14666;BMP280;7420;53.574;10.040;2023-04-10T06:52:47;54225.19;;;-136.87
14666;BMP280;7420;53.574;10.040;2023-04-10T06:55:12;54225.19;;;-136.87
14666;BMP280;7420;53.574;10.040;2023-04-10T06:57:38;54229.28;;;-136.87
14666;BMP280;7420;53.574;10.040;2023-04-10T07:00:05;54225.19;;;-136.87
14666;BMP280;7420;53.574;10.040;2023-04-10T07:02:31;54225.19;;;-136.87
14666;BMP280;7420;53.574;10.040;2023-04-10T07:04:56;54223.16;;;-136.87
14666;BMP280;7420;53.574;10.040;2023-04-10T07:07:22;54229.28;;;-136.87
14666;BMP280;7420;53.574;10.040;2023-04-10T07:09:47;54225.19;;;-136.87
14666;BMP280;7420;53.574;10.040;2023-04-10T07:12:13;54227.25;;;-136.87
14666;BMP280;7420;53.574;10.040;2023-04-10T07:14:38;54225.19;;;-136.87
14666;BMP280;7420;53.574;10.040;2023-04-10T07:17:03;54225.19;;;-136.87
14666;BMP280;7420;53.574;10.040;2023-04-10T07:19:29;54227.25;;;-136.87
14666;BMP280;7420;53.574;10.040;2023-04-10T07:21:54;54229.28;;;-136.87
14666;BMP280;7420;53.574;10.040;2023-04-10T07:24:20;54225.19;;;-136.87
14666;BMP280;7420;53.574;10.040;2023-04-10T07:26:45;54227.25;;;-136.87
14666;BMP280;7420;53.574;10.040;2023-04-10T07:29:11;54225.19;;;-136.87
14666;BMP280;7420;53.574;10.040;2023-04-10T07:31:38;54225.19;;;-136.87
14666;BMP280;7420;53.574;10.040;2023-04-10T07:34:03;54227.25;;;-136.87
14666;BMP280;7420;53.574;10.040;2023-04-10T07:36:29;54223.16;;;-136.87
14666;BMP280;7420;53.574;10.040;2023-04-10T07:38:54;54225.19;;;-136.87
14666;BMP280;7420;53.574;10.040;2023-04-10T07:41:20;54223.16;;;-136.87
14666;BMP280;7420;53.574;10.040;2023-04-10T07:43:46;54225.19;;;-136.87
14666;BMP280;7420;53.574;10.040;2023-04-10T07:46:12;54225.19;;;-136.87
14666;BMP280;7420;53.574;10.040;2023-04-10T07:48:37;54225.19;;;-136.87
14666;BMP280;7420;53.574;10.040;2023-04-10T07:53:29;54223.16;;;-136.87
14666;BMP280;7420;53.574;10.040;2023-04-10T07:55:54;54225.19;;;-136.87
14666;BMP280;7420;53.574;10.040;2023-04-10T07:58:20;54223.16;;;-136.87
14666;BMP280;7420;53.574;10.040;2023-04-10T08:00:45;54225.19;;;-136.87
14666;BMP280;7420;53.574;10.040;2023-04-10T08:03:11;54225.19;;;-136.87
14666;BMP280;7420;53.574;10.040;2023-04-10T08:05:40;54225.19;;;-136.87
14666;BMP280;7420;53.574;10.040;2023-04-10T08:08:05;54225.19;;;-136.87
14666;BMP280;7420;53.574;10.040;2023-04-10T08:10:31;54225.19;;;-136.87
14666;BMP280;7420;53.574;10.040;2023-04-10T08:12:56;54227.25;;;-136.87
14666;BMP280;7420;53.574;10.040;2023-04-10T08:15:22;54225.19;;;-136.87
14666;BMP280;7420;53.574;10.040;2023-04-10T08:17:47;54225.19;;;-136.87
14666;BMP280;7420;53.574;10.040;2023-04-10T08:20:12;54223.16;;;-136.87
14666;BMP280;7420;53.574;10.040;2023-04-10T08:22:38;54225.19;;;-136.87
14666;BMP280;7420;53.574;10.040;2023-04-10T08:25:04;54221.13;;;-136.87
14666;BMP280;7420;53.574;10.040;2023-04-10T08:27:29;54225.19;;;-136.87
14666;BMP280;7420;53.574;10.040;2023-04-10T08:29:55;54227.25;;;-136.87
14666;BMP280;7420;53.574;10.040;2023-04-10T08:32:20;54225.19;;;-136.87
14666;BMP280;7420;53.574;10.040;2023-04-10T08:34:46;54225.19;;;-136.87
14666;BMP280;7420;53.574;10.040;2023-04-10T08:37:11;54223.16;;;-136.87
14666;BMP280;7420;53.574;10.040;2023-04-10T08:39:39;54227.25;;;-136.87
14666;BMP280;7420;53.574;10.040;2023-04-10T08:44:30;54225.19;;;-136.87
14666;BMP280;7420;53.574;10.040;2023-04-10T08:46:58;54225.19;;;-136.87
14666;BMP280;7420;53.574;10.040;2023-04-10T08:49:30;54223.16;;;-136.87
14666;BMP280;7420;53.574;10.040;2023-04-10T08:51:57;54221.13;;;-136.87
14666;BMP280;7420;53.574;10.040;2023-04-10T08:54:27;54225.19;;;-136.87
14666;BMP280;7420;53.574;10.040;2023-04-10T08:56:55;54221.13;;;-136.87
14666;BMP280;7420;53.574;10.040;2023-04-10T08:59:21;54223.16;;;-136.87
14666;BMP280;7420;53.574;10.040;2023-04-10T09:01:47;54223.16;;;-136.87
14666;BMP280;7420;53.574;10.040;2023-04-10T09:04:12;54225.19;;;-136.87
14666;BMP280;7420;53.574;10.040;2023-04-10T09:06:38;54225.19;;;-136.87
14666;BMP280;7420;53.574;10.040;2023-04-10T09:09:07;54223.16;;;-136.87
14666;BMP280;7420;53.574;10.040;2023-04-10T09:14:20;54225.19;;;-136.87
14666;BMP280;7420;53.574;10.040;2023-04-10T09:16:46;54221.13;;;-136.87
14666;BMP280;7420;53.574;10.040;2023-04-10T09:19:11;54221.13;;;-136.87
14666;BMP280;7420;53.574;10.040;2023-04-10T09:21:37;54221.13;;;-136.87
14666;BMP280;7420;53.574;10.040;2023-04-10T09:24:02;54221.13;;;-136.87
14666;BMP280;7420;53.574;10.040;2023-04-10T09:26:30;54223.16;;;-136.87
14666;BMP280;7420;53.574;10.040;2023-04-10T09:28:56;54225.19;;;-136.87
14666;BMP280;7420;53.574;10.040;2023-04-10T09:31:35;54221.13;;;-136.87
14666;BMP280;7420;53.574;10.040;2023-04-10T09:36:59;54223.16;;;-136.87
14666;BMP280;7420;53.574;10.040;2023-04-10T09:39:33;54225.19;;;-136.87
14666;BMP280;7420;53.574;10.040;2023-04-10T09:41:58;54225.19;;;-136.87
14666;BMP280;7420;53.574;10.040;2023-04-10T09:44:32;54221.13;;;-136.87
14666;BMP280;7420;53.574;10.040;2023-04-10T09:46:58;54219.06;;;-136.87
14666;BMP280;7420;53.574;10.040;2023-04-10T09:49:52;54223.16;;;-136.87
14666;BMP280;7420;53.574;10.040;2023-04-10T09:52:24;54219.06;;;-136.87
14666;BMP280;7420;53.574;10.040;2023-04-10T09:54:53;54223.16;;;-136.87
14666;BMP280;7420;53.574;10.040;2023-04-10T09:57:20;54221.13;;;-136.87
14666;BMP280;7420;53.574;10.040;2023-04-10T09:59:51;54221.13;;;-136.87
14666;BMP280;7420;53.574;10.040;2023-04-10T10:02:18;54221.13;;;-136.87
14666;BMP280;7420;53.574;10.040;2023-04-10T10:04:45;54221.13;;;-136.87
14666;BMP280;7420;53.574;10.040;2023-04-10T10:07:15;54221.13;;;-136.87
14666;BMP280;7420;53.574;10.040;2023-04-10T10:09:41;54221.13;;;-136.87
14666;BMP280;7420;53.574;10.040;2023-04-10T10:12:09;54225.19;;;-136.87
14666;BMP280;7420;53.574;10.040;2023-04-10T10:14:50;54221.13;;;-136.87
14666;BMP280;7420;53.574;10.040;2023-04-10T10:17:20;54221.13;;;-136.87
14666;BMP280;7420;53.574;10.040;2023-04-10T10:19:55;54221.13;;;-136.87
14666;BMP280;7420;53.574;10.040;2023-04-10T10:22:24;54221.13;;;-136.87
14666;BMP280;7420;53.574;10.040;2023-04-10T10:24:50;54221.13;;;-136.87
14666;BMP280;7420;53.574;10.040;2023-04-10T10:27:22;54223.16;;;-136.87
14666;BMP280;7420;53.574;10.040;2023-04-10T10:29:48;54221.13;;;-136.87
14666;BMP280;7420;53.574;10.040;2023-04-10T10:32:16;54225.19;;;-136.87
14666;BMP280;7420;53.574;10.040;2023-04-10T10:34:43;54221.13;;;-136.87
14666;BMP280;7420;53.574;10.040;2023-04-10T10:37:10;54221.13;;;-136.87
14666;BMP280;7420;53.574;10.040;2023-04-10T10:43:00;54225.19;;;-136.87
14666;BMP280;7420;53.574;10.040;2023-04-10T10:45:29;54223.16;;;-136.87
14666;BMP280;7420;53.574;10.040;2023-04-10T10:47:55;54221.13;;;-136.87
14666;BMP280;7420;53.574;10.040;2023-04-10T10:50:21;54223.16;;;-136.87
14666;BMP280;7420;53.574;10.040;2023-04-10T10:52:54;54221.13;;;-136.87
14666;BMP280;7420;53.574;10.040;2023-04-10T10:57:51;54221.13;;;-136.87
14666;BMP280;7420;53.574;10.040;2023-04-10T11:00:17;54221.13;;;-136.87
14666;BMP280;7420;53.574;10.040;2023-04-10T11:02:43;54221.13;;;-136.87
14666;BMP280;7420;53.574;10.040;2023-04-10T11:05:08;54221.13;;;-136.87
14666;BMP280;7420;53.574;10.040;2023-04-10T11:13:35;54225.19;;;-136.87
14666;BMP280;7420;53.574;10.040;2023-04-10T11:16:02;54221.13;;;-136.87
14666;BMP280;7420;53.574;10.040;2023-04-10T11:21:20;54217.03;;;-136.87
14666;BMP280;7420;53.574;10.040;2023-04-10T11:31:47;54223.16;;;-136.87
14666;BMP280;7420;53.574;10.040;2023-04-10T11:34:19;54221.13;;;-136.87
14666;BMP280;7420;53.574;10.040;2023-04-10T11:36:44;54221.13;;;-136.87
14666;BMP280;7420;53.574;10.040;2023-04-10T11:39:14;54221.13;;;-136.87
14666;BMP280;7420;53.574;10.040;2023-04-10T11:41:47;54221.13;;;-136.87
14666;BMP280;7420;53.574;10.040;2023-04-10T11:44:32;54225.19;;;-136.87
14666;BMP280;7420;53.574;10.040;2023-04-10T11:47:00;54223.16;;;-136.87
14666;BMP280;7420;53.574;10.040;2023-04-10T11:49:29;54223.16;;;-136.87
14666;BMP280;7420;53.574;10.040;2023-04-10T11:51:55;54221.13;;;-136.87
14666;BMP280;7420;53.574;10.040;2023-04-10T11:54:22;54221.13;;;-136.87
14666;BMP280;7420;53.574;10.040;2023-04-10T11:57:02;54223.16;;;-136.87
14666;BMP280;7420;53.574;10.040;2023-04-10T11:59:29;54225.19;;;-136.87
14666;BMP280;7420;53.574;10.040;2023-04-10T12:02:06;54221.13;;;-136.87
14666;BMP280;7420;53.574;10.040;2023-04-10T12:04:32;54225.19;;;-136.87
14666;BMP280;7420;53.574;10.040;2023-04-10T12:06:57;54223.16;;;-136.87
14666;BMP280;7420;53.574;10.040;2023-04-10T12:09:23;54223.16;;;-136.87
14666;BMP280;7420;53.574;10.040;2023-04-10T12:14:15;54223.16;;;-136.87
14666;BMP280;7420;53.574;10.040;2023-04-10T12:16:41;54225.19;;;-136.87
14666;BMP280;7420;53.574;10.040;2023-04-10T12:19:07;54225.19;;;-136.87
14666;BMP280;7420;53.574;10.040;2023-04-10T12:21:35;54225.19;;;-136.87
14666;BMP280;7420;53.574;10.040;2023-04-10T12:24:00;54219.06;;;-136.87
14666;BMP280;7420;53.574;10.040;2023-04-10T12:26:26;54225.19;;;-136.87
14666;BMP280;7420;53.574;10.040;2023-04-10T12:28:55;54221.13;;;-136.87
14666;BMP280;7420;53.574;10.040;2023-04-10T12:31:29;54221.13;;;-136.87
14666;BMP280;7420;53.574;10.040;2023-04-10T12:33:56;54221.13;;;-136.87
14666;BMP280;7420;53.574;10.040;2023-04-10T12:36:27;54225.19;;;-136.87
14666;BMP280;7420;53.574;10.040;2023-04-10T12:39:22;54223.16;;;-136.87
14666;BMP280;7420;53.574;10.040;2023-04-10T12:41:48;54221.13;;;-136.87
14666;BMP280;7420;53.574;10.040;2023-04-10T12:44:13;54219.06;;;-136.87
14666;BMP280;7420;53.574;10.040;2023-04-10T12:46:40;54219.06;;;-136.87
14666;BMP280;7420;53.574;10.040;2023-04-10T12:49:10;54225.19;;;-136.87
14666;BMP280;7420;53.574;10.040;2023-04-10T12:51:46;54225.19;;;-136.87
14666;BMP280;7420;53.574;10.040;2023-04-10T12:54:32;54225.19;;;-136.87
14666;BMP280;7420;53.574;10.040;2023-04-10T12:56:58;54225.19;;;-136.87
14666;BMP280;7420;53.574;10.040;2023-04-10T12:59:24;54225.19;;;-136.87
14666;BMP280;7420;53.574;10.040;2023-04-10T13:01:51;54227.25;;;-136.87
14666;BMP280;7420;53.574;10.040;2023-04-10T13:04:16;54225.19;;;-136.87
14666;BMP280;7420;53.574;10.040;2023-04-10T13:06:43;54225.19;;;-136.87
14666;BMP280;7420;53.574;10.040;2023-04-10T13:09:09;54225.19;;;-136.87
14666;BMP280;7420;53.574;10.040;2023-04-10T13:11:35;54225.19;;;-136.87
14666;BMP280;7420;53.574;10.040;2023-04-10T13:14:00;54227.25;;;-136.87
14666;BMP280;7420;53.574;10.040;2023-04-10T13:16:25;54223.16;;;-136.87
14666;BMP280;7420;53.574;10.040;2023-04-10T13:18:51;54225.19;;;-136.87
14666;BMP280;7420;53.574;10.040;2023-04-10T13:21:16;54223.16;;;-136.87
14666;BMP280;7420;53.574;10.040;2023-04-10T13:23:47;54223.16;;;-136.87
14666;BMP280;7420;53.574;10.040;2023-04-10T13:26:12;54221.13;;;-136.87
14666;BMP280;7420;53.574;10.040;2023-04-10T13:28:38;54223.16;;;-136.87
14666;BMP280;7420;53.574;10.040;2023-04-10T13:31:03;54223.16;;;-136.87
14666;BMP280;7420;53.574;10.040;2023-04-10T13:33:28;54223.16;;;-136.87
14666;BMP280;7420;53.574;10.040;2023-04-10T13:35:54;54227.25;;;-136.87
14666;BMP280;7420;53.574;10.040;2023-04-10T13:38:19;54225.19;;;-136.87
14666;BMP280;7420;53.574;10.040;2023-04-10T13:40:45;54225.19;;;-136.87
14666;BMP280;7420;53.574;10.040;2023-04-10T13:43:10;54225.19;;;-136.87
14666;BMP280;7420;53.574;10.040;2023-04-10T13:45:35;54225.19;;;-136.87
14666;BMP280;7420;53.574;10.040;2023-04-10T13:48:01;54223.16;;;-136.87
14666;BMP280;7420;53.574;10.040;2023-04-10T13:50:26;54225.19;;;-136.87
14666;BMP280;7420;53.574;10.040;2023-04-10T13:52:52;54227.25;;;-136.87
14666;BMP280;7420;53.574;10.040;2023-04-10T13:55:17;54225.19;;;-136.87
14666;BMP280;7420;53.574;10.040;2023-04-10T13:57:42;54221.13;;;-136.87
14666;BMP280;7420;53.574;10.040;2023-04-10T14:00:08;54225.19;;;-136.87
14666;BMP280;7420;53.574;10.040;2023-04-10T14:02:34;54223.16;;;-136.87
14666;BMP280;7420;53.574;10.040;2023-04-10T14:05:00;54225.19;;;-136.87
14666;BMP280;7420;53.574;10.040;2023-04-10T14:07:25;54227.25;;;-136.87
14666;BMP280;7420;53.574;10.040;2023-04-10T14:09:50;54225.19;;;-136.87
14666;BMP280;7420;53.574;10.040;2023-04-10T14:12:16;54225.19;;;-136.87
14666;BMP280;7420;53.574;10.040;2023-04-10T14:14:43;54225.19;;;-136.87
14666;BMP280;7420;53.574;10.040;2023-04-10T14:17:09;54225.19;;;-136.87
14666;BMP280;7420;53.574;10.040;2023-04-10T14:19:36;54221.13;;;-136.87
14666;BMP280;7420;53.574;10.040;2023-04-10T14:22:01;54227.25;;;-136.87
14666;BMP280;7420;53.574;10.040;2023-04-10T14:24:26;54227.25;;;-136.87
14666;BMP280;7420;53.574;10.040;2023-04-10T14:26:52;54225.19;;;-136.87
14666;BMP280;7420;53.574;10.040;2023-04-10T14:29:23;54223.16;;;-136.87